createdAt,value
2018-03-16T00:00:19.043Z,19.90
2018-03-16T00:02:46.488Z,20.93
2018-03-16T00:05:13.939Z,18.77
2018-03-16T00:07:41.398Z,21.00
2018-03-16T00:10:08.855Z,19.30
2018-03-16T00:12:36.306Z,20.23
2018-03-16T00:15:04.518Z,21.07
2018-03-16T00:17:31.968Z,21.50
2018-03-16T00:19:59.416Z,22.03
2018-03-16T00:22:38.857Z,24.73
2018-03-16T00:25:06.318Z,25.13
2018-03-16T00:27:33.753Z,24.10
2018-03-16T00:30:01.202Z,24.87
2018-03-16T00:32:29.409Z,26.77
2018-03-16T00:34:56.862Z,23.17
2018-03-16T00:37:24.314Z,23.67
2018-03-16T00:39:51.812Z,28.53
2018-03-16T00:42:19.195Z,24.43
2018-03-16T00:44:47.425Z,26.70
2018-03-16T00:47:14.880Z,27.70
2018-03-16T00:49:42.340Z,28.57
2018-03-16T00:52:10.789Z,26.30
2018-03-16T00:54:38.226Z,25.63
2018-03-16T00:57:06.453Z,25.70
2018-03-16T00:59:33.903Z,28.00
2018-03-16T01:02:01.364Z,26.87
2018-03-16T01:04:28.807Z,24.57
2018-03-16T01:06:56.247Z,27.87
2018-03-16T01:09:23.684Z,28.13
2018-03-16T01:11:51.902Z,29.53
2018-03-16T01:14:19.342Z,27.50
2018-03-16T01:16:46.794Z,29.57
2018-03-16T01:19:14.229Z,27.00
2018-03-16T01:21:42.446Z,26.57
2018-03-16T01:24:09.884Z,25.87
2018-03-16T01:26:37.328Z,25.37
2018-03-16T01:29:05.543Z,29.13
2018-03-16T01:31:33.005Z,26.50
2018-03-16T01:34:00.456Z,26.17
2018-03-16T01:36:27.889Z,27.67
2018-03-16T01:38:55.334Z,26.57
2018-03-16T01:41:23.528Z,29.40
2018-03-16T01:43:50.980Z,27.17
2018-03-16T01:46:18.427Z,25.10
2018-03-16T01:48:46.626Z,27.70
2018-03-16T01:51:14.063Z,28.00
2018-03-16T01:53:41.512Z,27.50
2018-03-16T01:56:08.945Z,27.37
2018-03-16T01:58:36.386Z,26.33
2018-03-16T02:01:03.833Z,25.10
2018-03-16T02:03:31.284Z,28.17
2018-03-16T02:05:58.731Z,25.63
2018-03-16T02:08:26.181Z,26.97
2018-03-16T02:10:53.618Z,24.47
2018-03-16T02:13:21.067Z,26.00
2018-03-16T02:15:49.265Z,25.63
2018-03-16T02:18:16.723Z,24.00
2018-03-16T02:20:44.154Z,26.00
2018-03-16T02:23:12.360Z,25.57
2018-03-16T02:25:39.817Z,25.70
2018-03-16T02:28:07.273Z,25.37
2018-03-16T02:30:34.713Z,27.50
2018-03-16T02:33:02.149Z,26.80
2018-03-16T02:35:30.365Z,25.80
2018-03-16T02:37:57.800Z,25.37
2018-03-16T02:40:25.242Z,23.70
2018-03-16T02:42:53.460Z,25.87
2018-03-16T02:45:20.903Z,24.40
2018-03-16T02:47:48.370Z,23.57
2018-03-16T02:50:15.818Z,24.07
2018-03-16T02:52:43.260Z,24.43
2018-03-16T02:55:10.693Z,23.27
2018-03-16T02:57:38.906Z,22.87
2018-03-16T03:00:06.374Z,22.40
2018-03-16T03:02:33.804Z,23.17
2018-03-16T03:05:04.939Z,20.73
2018-03-16T03:07:33.155Z,22.00
2018-03-16T03:10:00.592Z,21.77
2018-03-16T03:12:28.035Z,20.40
2018-03-16T03:14:55.489Z,20.63
2018-03-16T03:17:23.693Z,22.07
2018-03-16T03:19:51.141Z,19.50
2018-03-16T03:22:18.586Z,20.10
2018-03-16T03:24:46.025Z,20.53
2018-03-16T03:27:14.236Z,20.70
2018-03-16T03:29:41.676Z,17.30
2018-03-16T03:32:09.119Z,21.53
2018-03-16T03:34:37.325Z,18.60
2018-03-16T03:37:04.776Z,18.67
2018-03-16T03:39:32.235Z,18.77
2018-03-16T03:41:59.666Z,20.93
2018-03-16T03:44:27.883Z,18.73
2018-03-16T03:46:55.317Z,18.90
2018-03-16T03:49:22.783Z,21.00
2018-03-16T03:51:50.220Z,21.83
2018-03-16T03:54:17.662Z,21.87
2018-03-16T03:56:45.868Z,22.07
2018-03-16T03:59:13.303Z,20.07
2018-03-16T04:01:41.519Z,23.40
2018-03-16T04:04:08.965Z,20.07
2018-03-16T04:06:36.416Z,23.17
2018-03-16T04:09:03.881Z,23.30
2018-03-16T04:11:31.338Z,23.07
2018-03-16T04:13:58.775Z,21.43
2018-03-16T04:16:26.216Z,21.40
2018-03-16T04:18:54.425Z,22.37
2018-03-16T04:21:21.868Z,23.30
2018-03-16T04:23:49.313Z,22.57
2018-03-16T04:26:16.765Z,22.97
2018-03-16T04:28:45.972Z,23.60
2018-03-16T04:31:14.437Z,22.90
2018-03-16T04:33:43.648Z,21.93
2018-03-16T04:36:11.089Z,22.60
2018-03-16T04:38:39.309Z,22.73
2018-03-16T04:41:06.748Z,21.90
2018-03-16T04:43:34.197Z,21.80
2018-03-16T04:46:01.629Z,22.30
2018-03-16T04:48:29.112Z,23.47
2018-03-16T04:51:00.325Z,24.47
2018-03-16T04:53:27.779Z,22.27
2018-03-16T04:55:55.263Z,25.13
2018-03-16T04:58:23.582Z,23.80
2018-03-16T05:00:51.097Z,23.10
2018-03-16T05:03:19.360Z,23.67
2018-03-16T05:05:46.763Z,23.07
2018-03-16T05:08:14.302Z,24.60
2018-03-16T05:10:41.737Z,24.17
2018-03-16T05:13:09.953Z,26.90
2018-03-16T05:15:37.427Z,24.07
2018-03-16T05:18:06.679Z,24.43
2018-03-16T05:20:34.960Z,25.83
2018-03-16T05:23:03.169Z,26.77
2018-03-16T05:25:30.611Z,24.40
2018-03-16T05:27:58.054Z,26.60
2018-03-16T05:30:25.484Z,24.90
2018-03-16T05:32:52.965Z,26.07
2018-03-16T05:35:21.165Z,28.37
2018-03-16T05:37:48.619Z,25.73
2018-03-16T05:40:16.051Z,24.23
2018-03-16T05:42:44.254Z,28.10
2018-03-16T05:45:11.689Z,25.90
2018-03-16T05:47:39.136Z,26.70
2018-03-16T05:50:07.353Z,26.87
2018-03-16T05:52:34.801Z,24.03
2018-03-16T05:55:02.252Z,26.80
2018-03-16T05:57:29.700Z,26.93
2018-03-16T05:59:57.801Z,24.47
2018-03-16T06:02:25.239Z,24.87
2018-03-16T06:04:52.666Z,25.43
2018-03-16T06:07:20.877Z,24.30
2018-03-16T06:09:48.315Z,23.83
2018-03-16T06:12:15.760Z,22.97
2018-03-16T06:14:43.945Z,24.40
2018-03-16T06:17:11.375Z,24.53
2018-03-16T06:19:39.591Z,21.63
2018-03-16T06:22:07.118Z,23.67
2018-03-16T06:24:35.316Z,23.40
2018-03-16T06:27:02.756Z,25.13
2018-03-16T06:29:30.964Z,21.47
2018-03-16T06:31:58.412Z,22.10
2018-03-16T06:34:25.860Z,23.13
2018-03-16T06:36:53.304Z,20.93
2018-03-16T06:39:21.556Z,20.80
2018-03-16T06:41:48.953Z,19.30
2018-03-16T06:44:16.392Z,23.33
2018-03-16T06:46:44.592Z,20.00
2018-03-16T06:49:12.049Z,19.43
2018-03-16T06:51:39.475Z,21.93
2018-03-16T06:54:07.701Z,20.40
2018-03-16T06:56:35.128Z,21.63
2018-03-16T06:59:02.578Z,19.40
2018-03-16T07:01:30.770Z,20.50
2018-03-16T07:03:58.209Z,22.80
2018-03-16T07:06:25.649Z,22.63
2018-03-16T07:08:53.868Z,25.33
2018-03-16T07:11:21.310Z,24.63
2018-03-16T07:13:48.740Z,22.80
2018-03-16T07:16:16.942Z,23.33
2018-03-16T07:18:44.373Z,24.70
2018-03-16T07:21:12.640Z,24.20
2018-03-16T07:23:40.075Z,23.73
2018-03-16T07:26:07.504Z,26.47
2018-03-16T07:28:34.955Z,25.37
2018-03-16T07:31:02.397Z,24.00
2018-03-16T07:33:29.834Z,27.70
2018-03-16T07:35:58.028Z,27.87
2018-03-16T07:38:26.499Z,25.30
2018-03-16T07:40:54.705Z,27.27
2018-03-16T07:43:22.147Z,28.07
2018-03-16T07:45:55.286Z,26.37
2018-03-16T07:48:22.761Z,27.57
2018-03-16T07:50:50.162Z,26.87
2018-03-16T07:53:17.611Z,27.40
2018-03-16T07:55:45.097Z,28.40
2018-03-16T07:58:13.251Z,27.53
2018-03-16T08:00:40.679Z,27.20
2018-03-16T08:03:08.945Z,27.90
2018-03-16T08:05:37.140Z,25.67
2018-03-16T08:08:04.580Z,26.37
2018-03-16T08:10:32.785Z,26.33
2018-03-16T08:13:00.341Z,27.57
2018-03-16T08:15:27.780Z,26.47
2018-03-16T08:17:55.995Z,27.07
2018-03-16T08:20:23.448Z,28.27
2018-03-16T08:22:50.919Z,28.40
2018-03-16T08:25:18.354Z,26.37
2018-03-16T08:27:45.797Z,27.50
2018-03-16T08:30:13.257Z,28.57
2018-03-16T08:32:40.695Z,27.47
2018-03-16T08:35:08.917Z,27.00
2018-03-16T08:37:36.351Z,26.07
2018-03-16T08:40:03.781Z,24.80
2018-03-16T08:42:31.993Z,26.00
2018-03-16T08:44:59.439Z,26.73
2018-03-16T08:47:26.871Z,26.00
2018-03-16T08:49:55.071Z,21.93
2018-03-16T08:52:22.498Z,26.93
2018-03-16T08:54:50.708Z,23.73
2018-03-16T08:57:18.144Z,25.10
2018-03-16T08:59:45.648Z,20.93
2018-03-16T09:02:15.826Z,24.07
2018-03-16T09:04:44.031Z,22.13
2018-03-16T09:07:11.466Z,22.47
2018-03-16T09:09:38.912Z,21.70
2018-03-16T09:12:09.129Z,20.40
2018-03-16T09:14:37.402Z,19.77
2018-03-16T09:17:08.742Z,19.87
2018-03-16T09:19:36.957Z,19.57
2018-03-16T09:22:04.402Z,19.90
2018-03-16T09:24:31.898Z,20.00
2018-03-16T09:26:59.362Z,19.63
2018-03-16T09:29:26.821Z,20.07
2018-03-16T09:31:54.276Z,16.00
2018-03-16T09:34:21.721Z,17.07
2018-03-16T09:36:49.160Z,15.30
2018-03-16T09:39:16.601Z,13.97
2018-03-16T09:41:44.105Z,14.80
2018-03-16T09:44:12.315Z,12.27
2018-03-16T09:46:40.532Z,12.43
2018-03-16T09:49:08.002Z,12.83
2018-03-16T09:51:36.429Z,12.07
2018-03-16T09:54:04.647Z,12.33
2018-03-16T09:56:32.097Z,13.33
2018-03-16T09:58:59.568Z,10.97
2018-03-16T10:01:30.764Z,11.90
2018-03-16T10:03:58.992Z,11.63
2018-03-16T10:06:26.440Z,11.70
2018-03-16T10:08:53.892Z,11.20
2018-03-16T10:11:21.397Z,10.37
2018-03-16T10:13:48.857Z,10.13
2018-03-16T10:16:16.334Z,8.67
2018-03-16T10:18:44.875Z,8.70
2018-03-16T10:21:15.505Z,8.93
2018-03-16T10:23:46.483Z,8.13
2018-03-16T10:26:14.581Z,7.60
2018-03-16T10:28:45.556Z,6.90
2018-03-16T10:31:16.003Z,7.60
2018-03-16T10:33:44.676Z,7.00
2018-03-16T10:36:13.106Z,6.67
2018-03-16T10:38:41.620Z,5.93
2018-03-16T10:41:09.874Z,6.50
2018-03-16T10:43:37.321Z,6.73
2018-03-16T10:46:04.773Z,6.60
2018-03-16T10:48:32.306Z,6.33
2018-03-16T10:51:00.651Z,6.53
2018-03-16T10:53:28.072Z,5.63
2018-03-16T10:55:55.550Z,5.97
2018-03-16T10:58:23.044Z,4.20
2018-03-16T11:00:56.195Z,4.40
2018-03-16T11:03:23.645Z,3.83
2018-03-16T11:05:55.000Z,3.10
2018-03-16T11:08:33.062Z,4.07
2018-03-16T11:11:01.261Z,4.90
2018-03-16T11:13:28.700Z,4.00
2018-03-16T11:15:56.921Z,4.10
2018-03-16T11:18:24.385Z,4.17
2018-03-16T11:20:51.829Z,4.37
2018-03-16T11:23:19.271Z,4.50
2018-03-16T11:25:46.717Z,4.30
2018-03-16T11:28:14.220Z,3.87
2018-03-16T11:30:43.358Z,4.80
2018-03-16T11:33:11.553Z,4.67
2018-03-16T11:35:39.027Z,4.00
2018-03-16T11:38:06.469Z,4.30
2018-03-16T11:40:33.908Z,4.00
2018-03-16T11:43:02.116Z,5.53
2018-03-16T11:45:29.569Z,5.00
2018-03-16T11:47:57.010Z,6.23
2018-03-16T11:50:24.460Z,6.60
2018-03-16T11:52:52.682Z,8.73
2018-03-16T11:55:20.205Z,10.27
2018-03-16T11:57:47.636Z,8.83
2018-03-16T12:00:15.140Z,9.33
2018-03-16T12:02:42.604Z,8.33
2018-03-16T12:05:10.041Z,9.00
2018-03-16T12:07:37.517Z,10.27
2018-03-16T12:10:04.947Z,9.00
2018-03-16T12:12:36.603Z,10.50
2018-03-16T12:15:04.067Z,7.83
2018-03-16T12:17:31.497Z,7.20
2018-03-16T12:19:59.722Z,6.93
2018-03-16T12:22:27.162Z,7.83
2018-03-16T12:24:54.599Z,6.40
2018-03-16T12:27:22.802Z,4.60
2018-03-16T12:29:50.252Z,4.43
2018-03-16T12:32:17.685Z,3.13
2018-03-16T12:34:45.901Z,2.20
2018-03-16T12:37:13.339Z,2.17
2018-03-16T12:39:40.770Z,2.70
2018-03-16T12:42:08.972Z,1.90
2018-03-16T12:44:36.410Z,1.77
2018-03-16T12:47:04.620Z,1.60
2018-03-16T12:49:32.071Z,2.27
2018-03-16T12:51:59.593Z,2.10
2018-03-16T12:54:27.802Z,2.07
2018-03-16T12:56:55.232Z,2.03
2018-03-16T12:59:23.447Z,1.83
2018-03-16T13:01:50.958Z,1.40
2018-03-16T13:04:19.165Z,1.87
2018-03-16T13:06:46.600Z,1.70
2018-03-16T13:09:14.036Z,2.37
2018-03-16T13:11:42.256Z,3.23
2018-03-16T13:14:09.689Z,4.00
2018-03-16T13:16:37.893Z,2.90
2018-03-16T13:19:05.348Z,2.40
2018-03-16T13:21:32.874Z,1.67
2018-03-16T13:24:01.182Z,1.80
2018-03-16T13:26:28.605Z,1.73
2018-03-16T13:28:56.881Z,1.40
2018-03-16T13:31:25.112Z,1.90
2018-03-16T13:33:52.557Z,2.17
2018-03-16T13:36:22.011Z,1.30
2018-03-16T13:38:50.262Z,1.90
2018-03-16T13:41:17.642Z,2.20
2018-03-16T13:43:45.849Z,2.27
2018-03-16T13:46:13.300Z,2.20
2018-03-16T13:48:40.724Z,2.00
2018-03-16T13:51:08.944Z,2.03
2018-03-16T13:53:36.398Z,1.80
2018-03-16T13:56:03.833Z,1.90
2018-03-16T13:58:31.269Z,1.93
2018-03-16T14:00:59.494Z,2.97
2018-03-16T14:03:26.926Z,2.90
2018-03-16T14:05:54.461Z,4.17
2018-03-16T14:08:22.676Z,6.63
2018-03-16T14:10:50.272Z,8.10
2018-03-16T14:13:17.768Z,4.43
2018-03-16T14:15:46.003Z,4.50
2018-03-16T14:18:13.445Z,5.20
2018-03-16T14:20:40.922Z,4.53
2018-03-16T14:23:08.358Z,4.87
2018-03-16T14:25:35.849Z,5.20
2018-03-16T14:28:03.272Z,5.40
2018-03-16T14:30:30.719Z,5.03
2018-03-16T14:32:58.161Z,5.03
2018-03-16T14:35:25.608Z,6.73
2018-03-16T14:37:53.806Z,4.57
2018-03-16T14:40:21.252Z,2.70
2018-03-16T14:42:48.679Z,1.70
2018-03-16T14:45:16.897Z,1.27
2018-03-16T14:47:44.337Z,1.10
2018-03-16T14:50:11.769Z,1.40
2018-03-16T14:52:39.987Z,1.60
2018-03-16T14:55:07.436Z,1.07
2018-03-16T14:57:34.950Z,1.00
2018-03-16T15:00:02.381Z,1.30
2018-03-16T15:02:29.820Z,1.10
2018-03-16T15:04:57.261Z,1.20
2018-03-16T15:07:24.703Z,1.47
2018-03-16T15:09:52.906Z,1.63
2018-03-16T15:12:20.341Z,1.57
2018-03-16T15:14:47.780Z,1.60
2018-03-16T15:17:16.000Z,0.80
2018-03-16T15:19:43.540Z,0.80
2018-03-16T15:22:12.110Z,1.00
2018-03-16T15:24:40.317Z,1.20
2018-03-16T15:27:07.848Z,0.90
2018-03-16T15:29:35.281Z,0.80
2018-03-16T15:32:03.495Z,3.23
2018-03-16T15:34:31.035Z,1.60
2018-03-16T15:36:59.239Z,3.37
2018-03-16T15:39:26.693Z,1.37
2018-03-16T15:41:54.163Z,1.23
2018-03-16T15:44:21.695Z,1.30
2018-03-16T15:46:49.134Z,2.90
2018-03-16T15:49:17.412Z,1.80
2018-03-16T15:51:46.370Z,8.80
2018-03-16T15:54:13.830Z,9.90
2018-03-16T15:56:41.318Z,11.47
2018-03-16T15:59:09.529Z,10.27
2018-03-16T16:01:37.047Z,10.77
2018-03-16T16:04:05.329Z,10.43
2018-03-16T16:06:33.561Z,10.60
2018-03-16T16:09:01.129Z,10.30
2018-03-16T16:11:28.590Z,10.73
2018-03-16T16:13:56.040Z,12.50
2018-03-16T16:16:23.486Z,10.77
2018-03-16T16:18:50.944Z,11.80
2018-03-16T16:21:18.409Z,12.70
2018-03-16T16:23:45.877Z,11.90
2018-03-16T16:26:13.350Z,12.40
2018-03-16T16:28:40.790Z,15.10
2018-03-16T16:31:08.236Z,14.13
2018-03-16T16:33:35.681Z,15.30
2018-03-16T16:36:03.231Z,13.87
2018-03-16T16:38:30.680Z,13.47
2018-03-16T16:40:58.136Z,14.73
2018-03-16T16:43:27.654Z,14.90
2018-03-16T16:45:55.113Z,15.40
2018-03-16T16:48:22.575Z,14.63
2018-03-16T16:50:50.034Z,15.50
2018-03-16T16:53:17.538Z,18.77
2018-03-16T16:55:45.758Z,15.90
2018-03-16T16:58:14.337Z,17.63
2018-03-16T17:00:42.589Z,16.40
2018-03-16T17:03:10.138Z,16.20
2018-03-16T17:05:38.350Z,15.70
2018-03-16T17:08:05.792Z,18.10
2018-03-16T17:10:33.263Z,17.33
2018-03-16T17:13:00.721Z,17.60
2018-03-16T17:15:28.275Z,16.40
2018-03-16T17:17:55.700Z,18.00
2018-03-16T17:20:23.936Z,15.43
2018-03-16T17:22:51.384Z,17.63
2018-03-16T17:25:18.840Z,17.17
2018-03-16T17:27:46.289Z,15.80
2018-03-16T17:30:13.735Z,14.40
2018-03-16T17:32:41.185Z,14.63
2018-03-16T17:35:08.637Z,12.97
2018-03-16T17:37:36.088Z,14.67
2018-03-16T17:40:04.303Z,13.80
2018-03-16T17:42:31.761Z,13.50
2018-03-16T17:44:59.272Z,14.33
2018-03-16T17:47:27.503Z,12.97
2018-03-16T17:49:54.952Z,14.93
2018-03-16T17:52:22.476Z,12.60
2018-03-16T17:54:50.684Z,10.50
2018-03-16T17:57:18.926Z,10.77
2018-03-16T17:59:46.374Z,9.53
2018-03-16T18:02:14.682Z,9.37
2018-03-16T18:04:42.125Z,9.27
2018-03-16T18:07:09.578Z,11.40
2018-03-16T18:09:37.033Z,11.07
2018-03-16T18:12:04.578Z,11.57
2018-03-16T18:14:33.164Z,9.00
2018-03-16T18:17:00.689Z,10.03
2018-03-16T18:19:28.141Z,9.13
2018-03-16T18:21:59.117Z,9.00
2018-03-16T18:24:27.409Z,8.10
2018-03-16T18:26:54.849Z,9.10
2018-03-16T18:29:23.074Z,9.07
2018-03-16T18:31:50.521Z,9.80
2018-03-16T18:34:17.982Z,8.77
2018-03-16T18:36:45.401Z,9.20
2018-03-16T18:39:13.614Z,9.47
2018-03-16T18:41:44.396Z,7.37
2018-03-16T18:44:11.821Z,8.43
2018-03-16T18:46:39.268Z,8.30
2018-03-16T18:49:06.776Z,8.00
2018-03-16T18:51:34.995Z,7.90
2018-03-16T18:54:02.430Z,6.07
2018-03-16T18:56:29.881Z,5.67
2018-03-16T18:58:57.341Z,6.60
2018-03-16T19:01:25.536Z,6.00
2018-03-16T19:03:52.972Z,6.07
2018-03-16T19:06:20.456Z,6.20
2018-03-16T19:08:47.899Z,5.97
2018-03-16T19:11:15.346Z,7.10
2018-03-16T19:13:42.781Z,5.50
2018-03-16T19:16:10.988Z,5.47
2018-03-16T19:18:38.435Z,6.77
2018-03-16T19:21:05.882Z,6.40
2018-03-16T19:23:34.083Z,6.93
2018-03-16T19:26:01.534Z,6.30
2018-03-16T19:28:28.966Z,7.57
2018-03-16T19:30:57.157Z,6.97
2018-03-16T19:33:24.603Z,6.73
2018-03-16T19:35:52.817Z,6.70
2018-03-16T19:38:20.262Z,7.63
2018-03-16T19:40:47.693Z,7.30
2018-03-16T19:43:15.139Z,6.90
2018-03-16T19:45:43.417Z,6.17
2018-03-16T19:48:11.646Z,6.00
2018-03-16T19:50:39.090Z,8.00
2018-03-16T19:53:06.628Z,7.63
2018-03-16T19:55:34.076Z,6.70
2018-03-16T19:58:02.301Z,7.60
2018-03-16T20:00:29.789Z,5.70
2018-03-16T20:02:57.264Z,6.50
2018-03-16T20:05:24.701Z,7.50
2018-03-16T20:07:52.149Z,6.90
2018-03-16T20:10:19.629Z,6.20
2018-03-16T20:12:47.843Z,5.70
2018-03-16T20:15:15.261Z,6.00
2018-03-16T20:17:43.454Z,5.30
2018-03-16T20:20:10.896Z,5.90
2018-03-16T20:22:39.166Z,7.23
2018-03-16T20:25:07.388Z,7.13
2018-03-16T20:27:34.853Z,8.53
2018-03-16T20:30:02.305Z,8.27
2018-03-16T20:32:29.738Z,6.20
2018-03-16T20:34:57.170Z,7.83
2018-03-16T20:37:25.366Z,7.80
2018-03-16T20:39:52.816Z,9.57
2018-03-16T20:42:20.303Z,8.30
2018-03-16T20:44:48.470Z,8.93
2018-03-16T20:47:15.938Z,8.43
2018-03-16T20:49:43.466Z,9.00
2018-03-16T20:52:10.909Z,8.30
2018-03-16T20:54:39.121Z,9.50
2018-03-16T20:57:06.565Z,15.57
2018-03-16T20:59:34.009Z,9.83
2018-03-16T21:02:01.448Z,10.07
2018-03-16T21:04:29.652Z,8.97
2018-03-16T21:06:57.092Z,9.17
2018-03-16T21:09:25.308Z,8.03
2018-03-16T21:11:52.768Z,9.43
2018-03-16T21:14:20.204Z,10.17
2018-03-16T21:16:47.648Z,7.07
2018-03-16T21:19:15.858Z,9.77
2018-03-16T21:21:43.287Z,9.77
2018-03-16T21:24:10.733Z,9.67
2018-03-16T21:26:38.178Z,9.97
2018-03-16T21:29:06.378Z,9.43
2018-03-16T21:31:33.820Z,11.77
2018-03-16T21:34:01.258Z,10.17
2018-03-16T21:36:29.466Z,10.50
2018-03-16T21:38:57.910Z,11.13
2018-03-16T21:41:26.132Z,12.67
2018-03-16T21:43:53.573Z,11.93
2018-03-16T21:46:21.011Z,11.27
2018-03-16T21:48:49.222Z,11.83
2018-03-16T21:51:17.846Z,12.97
2018-03-16T21:53:45.466Z,11.60
2018-03-16T21:56:13.027Z,11.80
2018-03-16T21:58:41.588Z,13.40
2018-03-16T22:01:09.037Z,9.40
2018-03-16T22:03:36.487Z,9.17
2018-03-16T22:06:04.700Z,12.00
2018-03-16T22:08:32.125Z,11.77
2018-03-16T22:11:00.339Z,11.53
2018-03-16T22:13:27.810Z,12.27
2018-03-16T22:15:55.238Z,13.63
2018-03-16T22:18:22.677Z,12.40
2018-03-16T22:20:50.117Z,12.30
2018-03-16T22:23:18.336Z,13.00
2018-03-16T22:25:46.777Z,13.87
2018-03-16T22:28:14.994Z,12.60
2018-03-16T22:30:43.424Z,13.30
2018-03-16T22:33:11.670Z,12.00
2018-03-16T22:35:39.113Z,10.17
2018-03-16T22:38:06.559Z,13.20
2018-03-16T22:40:34.003Z,11.40
2018-03-16T22:43:01.476Z,14.37
2018-03-16T22:45:28.889Z,15.07
2018-03-16T22:47:57.110Z,13.13
2018-03-16T22:50:24.551Z,14.60
2018-03-16T22:52:52.009Z,13.30
2018-03-16T22:55:19.447Z,13.40
2018-03-16T22:57:47.680Z,15.30
2018-03-16T23:00:18.918Z,14.93
2018-03-16T23:02:46.401Z,11.00
2018-03-16T23:05:13.874Z,14.50
2018-03-16T23:07:42.088Z,15.07
2018-03-16T23:10:09.581Z,16.60
2018-03-16T23:12:37.008Z,15.53
2018-03-16T23:15:04.449Z,14.67
2018-03-16T23:17:31.896Z,14.10
2018-03-16T23:19:59.336Z,15.80
2018-03-16T23:22:27.637Z,15.07
2018-03-16T23:24:55.080Z,14.20
2018-03-16T23:27:22.523Z,14.17
2018-03-16T23:29:50.729Z,14.80
2018-03-16T23:32:18.183Z,17.70
2018-03-16T23:34:45.671Z,14.73
2018-03-16T23:37:13.114Z,13.93
2018-03-16T23:39:40.545Z,15.40
2018-03-16T23:42:08.002Z,13.43
2018-03-16T23:44:35.440Z,12.20
2018-03-16T23:47:03.660Z,14.97
2018-03-16T23:49:32.099Z,11.90
2018-03-16T23:52:00.305Z,12.87
2018-03-16T23:54:27.755Z,15.90
2018-03-16T23:56:55.193Z,15.60
2018-03-16T23:59:23.404Z,14.63
